Paramount Helsinki — 2CWB3 — position and weather

sailwx.info

Track history (hours):
 
Tides and Currents Weather Stations Pressure Air Temp Water Temp Dewpoint Dewpoint Depression Visibility Wind Speed Wind Dir Waves Ship Positions

Paramount Helsinki

Last reported at 2014-Nov-20 06:32 UTC. Time now 2014-Nov-26 06:32 UTC.
Position N 29°56' W 090°13'.

Length 250 m; draft 8.7 m.

Type: Ship. MMSI: 235076275.

Date/timePositionNaut miles runAvg speedWind from/ knotsBaromVisibWave heightAir tempDewpointWater temp
2014-Nov-20 06:32N 29°56' W 090°13'7 7.1
2014-Nov-20 05:33N 29°55' W 090°05'6 6.0
2014-Nov-20 04:33N 29°55' W 089°58'249 5.4
2014-Nov-18 06:32N 29°20' W 094°41'1010.4
2014-Nov-18 05:33N 29°27' W 094°50'1010.5
2014-Nov-18 04:33N 29°36' W 094°57'9 9.4
2014-Nov-18 03:33N 29°44' W 095°02'5 4.9
2014-Nov-18 02:33N 29°44' W 095°08'0 0.0
2014-Nov-16 19:18N 29°44' W 095°08'1 2.0
2014-Nov-16 18:33N 29°45' W 095°06'5 5.0
2014-Nov-16 17:33N 29°42' W 095°01'8 8.4
2014-Nov-16 16:33N 29°35' W 094°56'1110.6
2014-Nov-16 15:33N 29°26' W 094°50'9 8.9
2014-Nov-16 14:33N 29°21' W 094°42'  
2014-Nov-14 10:32N 29°23' W 094°48'1111.0
2014-Nov-14 09:33N 29°32' W 094°54'1010.2
2014-Nov-14 08:33N 29°41' W 094°59'7 6.9
2014-Nov-14 07:33N 29°45' W 095°06'2 0.1
2014-Nov-12 17:33N 29°44' W 095°08'3 3.2
2014-Nov-12 16:33N 29°46' W 095°04'7 7.1
2014-Nov-12 15:33N 29°40' W 094°59'1010.2
2014-Nov-12 14:33N 29°31' W 094°53'1110.8
2014-Nov-12 13:33N 29°22' W 094°48'20 0.4
2014-Nov-10 10:12N 29°08' W 094°30'0 0.0
2014-Nov-10 09:33N 29°08' W 094°30'  
Track history (hours):
 
Tides and Currents Weather Stations Pressure Air Temp Water Temp Dewpoint Dewpoint Depression Visibility Wind Speed Wind Dir Waves Ship Positions

Paramount Helsinki

Last reported at 2014-Nov-20 06:32 UTC. Time now 2014-Nov-26 06:32 UTC.
Position N 29°56' W 090°13'.

Length 250 m; draft 8.7 m.

Type: Ship. MMSI: 235076275.

Date/timePositionNaut miles runAvg speedWind from/ knotsBaromVisibWave heightAir tempDewpointWater temp
2014-Nov-20 06:32N 29°56' W 090°13'7 7.1
2014-Nov-20 05:33N 29°55' W 090°05'6 6.0
2014-Nov-20 04:33N 29°55' W 089°58'249 5.4
2014-Nov-18 06:32N 29°20' W 094°41'1010.4
2014-Nov-18 05:33N 29°27' W 094°50'1010.5
2014-Nov-18 04:33N 29°36' W 094°57'9 9.4
2014-Nov-18 03:33N 29°44' W 095°02'5 4.9
2014-Nov-18 02:33N 29°44' W 095°08'0 0.0
2014-Nov-16 19:18N 29°44' W 095°08'1 2.0
2014-Nov-16 18:33N 29°45' W 095°06'5 5.0
2014-Nov-16 17:33N 29°42' W 095°01'8 8.4
2014-Nov-16 16:33N 29°35' W 094°56'1110.6
2014-Nov-16 15:33N 29°26' W 094°50'9 8.9
2014-Nov-16 14:33N 29°21' W 094°42'  
2014-Nov-14 10:32N 29°23' W 094°48'1111.0
2014-Nov-14 09:33N 29°32' W 094°54'1010.2
2014-Nov-14 08:33N 29°41' W 094°59'7 6.9
2014-Nov-14 07:33N 29°45' W 095°06'2 0.1
2014-Nov-12 17:33N 29°44' W 095°08'3 3.2
2014-Nov-12 16:33N 29°46' W 095°04'7 7.1
2014-Nov-12 15:33N 29°40' W 094°59'1010.2
2014-Nov-12 14:33N 29°31' W 094°53'1110.8
2014-Nov-12 13:33N 29°22' W 094°48'20 0.4
2014-Nov-10 10:12N 29°08' W 094°30'0 0.0
2014-Nov-10 09:33N 29°08' W 094°30'  

Dump ship's entire track history